Time;durP1;ratioP1;P1;durP2;ratioP2;P2;SDS_P1;SDS_P2;PMS_P1;PMS_P2;Temp;Humidity;BMP_temperature;BMP_pressure;BME280_temperature;BME280_humidity;BME280_pressure;Samples;Min_cycle;Max_cycle;Signal;HPM_P1;HPM_P2
2024/04/16 15:48:08;;;;;;;;;0.00;0.00;;;;;25.11;36.77;101204.28;5326718;22;44298;-76
2024/04/16 15:50:34;;;;;;;;;0.00;0.00;;;;;25.00;36.58;101179.00;5184162;27;44001;-79
2024/04/16 15:53:00;;;;;;;;;1.00;0.00;;;;;25.19;37.84;101208.63;5184814;27;43977;-85
2024/04/16 15:55:25;;;;;;;;;0.00;0.00;;;;;25.18;37.86;101205.19;5185548;27;44021;-77
2024/04/16 15:57:51;;;;;;;;;0.00;0.00;;;;;25.14;36.15;101211.88;5184394;27;44048;-75
2024/04/16 16:00:16;;;;;;;;;0.00;0.00;;;;;25.13;37.57;101212.09;5192235;27;43986;-75
2024/04/16 16:02:42;;;;;;;;;0.00;0.00;;;;;25.12;36.06;101208.59;5188382;27;43891;-75
2024/04/16 16:05:08;;;;;;;;;0.00;0.00;;;;;24.98;36.76;101181.03;5179066;27;44258;-76
2024/04/16 16:07:34;;;;;;;;;0.00;0.00;;;;;25.09;36.69;101211.63;5216469;27;45902;-76
2024/04/16 16:09:59;;;;;;;;;0.00;0.00;;;;;25.06;36.52;101193.38;5186820;27;44090;-75
2024/04/16 16:12:25;;;;;;;;;0.00;0.00;;;;;25.01;36.11;101198.50;5183896;27;43975;-78
2024/04/16 16:14:50;;;;;;;;;2.00;0.00;;;;;25.03;33.23;101204.44;5182900;27;43784;-79
2024/04/16 16:17:15;;;;;;;;;1.33;0.00;;;;;24.96;31.84;101205.16;5184970;27;43979;-79
2024/04/16 16:19:41;;;;;;;;;1.00;1.00;;;;;24.71;31.89;101199.41;5215022;27;43923;-79
2024/04/16 16:22:09;;;;;;;;;0.00;0.00;;;;;24.37;30.09;101185.78;5209627;27;43938;-79
2024/04/16 16:24:34;;;;;;;;;1.33;0.33;;;;;24.25;31.28;101204.03;5195802;27;43907;-78
2024/04/16 16:26:59;;;;;;;;;0.33;0.00;;;;;23.76;29.64;101153.94;5203747;27;45998;-79
2024/04/16 16:29:25;;;;;;;;;1.00;1.00;;;;;23.84;29.82;101193.72;5182453;27;43963;-78
2024/04/16 16:31:50;;;;;;;;;0.33;0.33;;;;;23.66;30.25;101191.41;5181076;27;44090;-78
2024/04/16 16:34:15;;;;;;;;;4.00;1.33;;;;;23.55;30.34;101205.16;5208218;27;44533;-78
2024/04/16 16:36:41;;;;;;;;;0.67;0.67;;;;;23.38;30.54;101205.28;5182426;27;44924;-78
2024/04/16 16:39:06;;;;;;;;;1.67;0.00;;;;;23.23;29.22;101205.25;5182365;27;43751;-78
2024/04/16 16:41:32;;;;;;;;;2.00;1.00;;;;;23.10;29.37;101198.75;5183528;27;43749;-78
2024/04/16 16:43:57;;;;;;;;;1.33;0.00;;;;;22.87;29.87;101185.50;5181527;27;43809;-78
2024/04/16 16:46:23;;;;;;;;;2.00;1.00;;;;;22.80;30.13;101198.63;5181331;27;45661;-77
2024/04/16 16:48:48;;;;;;;;;2.33;0.67;;;;;22.58;30.68;101172.72;5178217;27;43938;-77
2024/04/16 16:51:13;;;;;;;;;4.00;0.00;;;;;22.61;30.29;101184.81;5181827;27;44051;-76
2024/04/16 16:53:39;;;;;;;;;1.67;0.67;;;;;22.63;29.95;101196.91;5181713;27;43984;-78
2024/04/16 16:56:06;;;;;;;;;0.00;0.00;;;;;22.55;30.14;101196.09;5194243;27;44922;-78
2024/04/16 16:58:31;;;;;;;;;1.00;1.00;;;;;22.37;30.22;101184.78;5182577;27;44044;-78
2024/04/16 17:00:57;;;;;;;;;2.00;2.00;;;;;22.30;29.87;101178.53;5202558;27;43924;-78
2024/04/16 17:03:23;;;;;;;;;3.00;1.00;;;;;22.25;30.68;101186.19;5182746;27;44011;-78
2024/04/16 17:05:49;;;;;;;;;2.00;0.67;;;;;22.26;30.71;101198.41;5182994;27;45786;-78
2024/04/16 17:08:14;;;;;;;;;2.00;0.33;;;;;22.24;30.44;101206.56;5183524;27;44027;-76
2024/04/16 17:10:40;;;;;;;;;0.33;0.00;;;;;22.11;31.48;101174.47;5183387;27;43923;-80
2024/04/16 17:13:05;;;;;;;;;1.33;0.67;;;;;22.45;31.84;101201.63;5183328;27;44031;-77
2024/04/16 17:15:31;;;;;;;;;1.33;0.00;;;;;22.60;32.14;101221.09;5181006;27;45741;-78
2024/04/16 17:17:56;;;;;;;;;0.33;0.00;;;;;22.65;31.94;101206.47;5184679;27;44269;-79
2024/04/16 17:20:21;;;;;;;;;0.00;0.00;;;;;22.81;31.86;101217.03;5186303;27;44589;-79
2024/04/16 17:22:51;;;;;;;;;1.00;0.33;;;;;22.99;32.61;101229.16;5185948;27;44088;-80
2024/04/16 17:25:17;;;;;;;;;2.00;0.00;;;;;23.07;32.16;101236.25;5184422;27;46097;-77
2024/04/16 17:27:42;;;;;;;;;1.00;1.00;;;;;23.21;32.67;101236.47;5185346;27;43922;-79
2024/04/16 17:30:08;;;;;;;;;3.00;0.00;;;;;23.26;32.16;101240.22;5185161;27;43955;-76
2024/04/16 17:32:34;;;;;;;;;2.00;0.67;;;;;23.21;33.07;101220.56;5185863;27;44067;-79
2024/04/16 17:35:00;;;;;;;;;2.00;0.33;;;;;22.98;32.36;101179.75;5186065;27;46093;-82
2024/04/16 17:37:25;;;;;;;;;0.00;0.00;;;;;23.51;33.08;101265.78;5184117;27;43860;-83
2024/04/16 17:39:50;;;;;;;;;0.00;0.00;;;;;23.61;33.32;101276.13;5186377;27;43833;-74
2024/04/16 17:42:16;;;;;;;;;1.00;1.00;;;;;23.46;33.17;101241.56;5185008;27;44102;-77
2024/04/16 17:44:41;;;;;;;;;1.00;0.67;;;;;23.52;33.64;101244.34;5184968;27;43914;-76
2024/04/16 17:47:08;;;;;;;;;0.00;0.00;;;;;23.69;33.53;101248.66;5174547;27;44021;-74
2024/04/16 17:49:33;;;;;;;;;0.00;0.00;;;;;23.87;32.96;101268.75;5178520;27;43958;-75
2024/04/16 17:51:59;;;;;;;;;0.67;0.00;;;;;23.92;33.20;101283.13;5188087;27;44021;-74
2024/04/16 17:54:25;;;;;;;;;2.00;0.00;;;;;23.97;33.96;101290.56;5191441;27;44656;-74
2024/04/16 17:56:50;;;;;;;;;1.67;0.00;;;;;24.01;32.79;101278.56;5187153;27;43833;-73
2024/04/16 17:59:18;;;;;;;;;0.00;0.00;;;;;23.98;33.55;101256.84;5184825;27;43978;-75
2024/04/16 18:01:44;;;;;;;;;1.00;0.00;;;;;23.99;33.01;101263.81;5180392;27;43955;-75
2024/04/16 18:04:09;;;;;;;;;0.00;0.00;;;;;24.14;34.28;101287.72;5213084;27;44966;-74
2024/04/16 18:06:35;;;;;;;;;1.00;0.00;;;;;24.17;33.48;101293.50;5209802;27;44088;-74
2024/04/16 18:09:00;;;;;;;;;1.00;1.00;;;;;24.16;34.25;101270.59;5216686;27;43990;-74
2024/04/16 18:11:26;;;;;;;;;0.00;0.00;;;;;23.96;34.12;101222.47;5187285;27;43975;-75
2024/04/16 18:13:51;;;;;;;;;2.33;0.33;;;;;24.13;34.24;101230.25;5206041;27;44929;-76
2024/04/16 18:16:17;;;;;;;;;2.00;0.00;;;;;24.29;34.61;101255.84;5205334;27;44033;-75
2024/04/16 18:18:45;;;;;;;;;2.00;0.00;;;;;24.32;34.36;101254.66;5185780;27;44050;-76
2024/04/16 18:21:10;;;;;;;;;0.00;0.00;;;;;24.24;34.15;101244.91;5187322;27;44022;-77
2024/04/16 18:23:36;;;;;;;;;0.67;0.00;;;;;24.27;34.58;101252.53;5205324;27;45990;-75
2024/04/16 18:26:01;;;;;;;;;0.67;0.67;;;;;24.40;34.27;101279.31;5196896;27;43931;-76
2024/04/16 18:28:26;;;;;;;;;0.33;0.33;;;;;24.35;33.92;101263.09;5184280;27;43999;-75
2024/04/16 18:30:52;;;;;;;;;0.00;0.00;;;;;24.44;33.53;101276.25;5191808;27;43934;-75
2024/04/16 18:33:17;;;;;;;;;0.00;0.00;;;;;24.22;33.42;101237.13;5184667;27;44920;-75
2024/04/16 18:35:43;;;;;;;;;0.00;0.00;;;;;24.44;33.82;101271.75;5189728;27;43929;-75
2024/04/16 18:38:12;;;;;;;;;1.00;0.00;;;;;24.40;34.04;101266.00;5192653;27;43917;-75
2024/04/16 18:40:37;;;;;;;;;2.00;0.00;;;;;24.46;35.00;101269.75;5217194;27;44025;-75
2024/04/16 18:43:04;;;;;;;;;0.67;0.67;;;;;24.52;33.93;101276.16;5207446;27;45888;-75
2024/04/16 18:45:29;;;;;;;;;0.33;0.33;;;;;24.44;35.01;101266.44;5178975;27;44030;-75
2024/04/16 18:47:54;;;;;;;;;0.00;0.00;;;;;24.54;34.29;101281.31;5210773;27;43967;-75
2024/04/16 18:50:20;;;;;;;;;0.00;0.00;;;;;24.56;35.13;101280.09;5195777;27;43966;-75
2024/04/16 18:52:45;;;;;;;;;0.00;0.00;;;;;24.57;34.40;101284.41;5197342;27;44061;-74
2024/04/16 18:55:10;;;;;;;;;0.00;0.00;;;;;24.51;34.17;101283.31;5204594;27;43804;-74
2024/04/16 18:57:36;;;;;;;;;0.33;0.33;;;;;24.58;34.91;101288.72;5197004;27;43992;-75
2024/04/16 19:00:01;;;;;;;;;0.00;0.00;;;;;24.52;35.38;101276.16;5190512;27;44067;-75
2024/04/16 19:02:26;;;;;;;;;0.00;0.00;;;;;24.58;34.61;101296.69;5184610;27;43899;-75
2024/04/16 19:04:51;;;;;;;;;0.67;0.00;;;;;24.59;35.26;101292.22;5184893;27;43836;-74
2024/04/16 19:07:19;;;;;;;;;0.00;0.00;;;;;24.59;34.23;101293.00;5185342;27;43871;-76
2024/04/16 19:09:45;;;;;;;;;0.00;0.00;;;;;24.60;35.25;101292.00;5185014;27;43911;-74
2024/04/16 19:12:10;;;;;;;;;0.00;0.00;;;;;24.61;35.18;101300.81;5184306;27;44984;-75
2024/04/16 19:14:35;;;;;;;;;0.00;0.00;;;;;24.56;34.07;101320.00;5185003;27;43897;-75
2024/04/16 19:17:01;;;;;;;;;2.33;1.00;;;;;24.62;35.06;101311.25;5185284;27;43980;-74
2024/04/16 19:19:27;;;;;;;;;0.67;0.67;;;;;24.50;34.56;101305.59;5184748;27;44037;-74
2024/04/16 19:21:53;;;;;;;;;0.00;0.00;;;;;24.64;34.26;101313.75;5184262;27;44015;-74
2024/04/16 19:24:18;;;;;;;;;0.00;0.00;;;;;24.52;34.56;101295.59;5182970;27;44082;-75
2024/04/16 19:26:43;;;;;;;;;0.00;0.00;;;;;24.60;35.48;101305.31;5216744;27;44106;-74
2024/04/16 19:29:09;;;;;;;;;2.00;0.00;;;;;24.63;34.57;101312.09;5212798;27;44197;-74
2024/04/16 19:31:34;;;;;;;;;0.00;0.00;;;;;24.65;35.12;101296.75;5216432;27;44748;-74
2024/04/16 19:33:59;;;;;;;;;2.00;0.00;;;;;24.60;35.56;101292.00;5216622;27;43883;-76
2024/04/16 19:36:25;;;;;;;;;1.00;0.00;;;;;24.66;35.19;101306.41;5193940;27;43943;-76
2024/04/16 19:38:50;;;;;;;;;0.00;0.00;;;;;24.58;36.05;101287.88;5197682;27;43839;-77
2024/04/16 19:41:17;;;;;;;;;1.00;1.00;;;;;24.66;35.50;101294.94;5204322;27;45663;-76
2024/04/16 19:43:43;;;;;;;;;1.33;1.00;;;;;24.49;34.75;101266.72;5184578;27;44011;-75
2024/04/16 19:46:09;;;;;;;;;0.00;0.00;;;;;24.60;35.69;101291.19;5185024;27;44138;-75
2024/04/16 19:48:34;;;;;;;;;0.00;0.00;;;;;24.69;35.02;101305.22;5184850;27;43910;-75
2024/04/16 19:51:00;;;;;;;;;1.67;0.00;;;;;24.69;35.36;101310.53;5185117;27;43888;-75
2024/04/16 19:53:25;;;;;;;;;0.33;0.00;;;;;24.63;34.34;101304.94;5188311;27;44108;-76
2024/04/16 19:56:01;;;;;;;;;1.00;1.00;;;;;24.69;34.72;101319.34;5191352;27;43910;-75
2024/04/16 19:58:26;;;;;;;;;0.00;0.00;;;;;24.70;35.23;101325.47;5210035;27;44029;-75
2024/04/16 20:01:00;;;;;;;;;0.00;0.00;;;;;24.69;35.85;101329.97;5205433;27;43928;-75
2024/04/16 20:03:26;;;;;;;;;2.00;0.00;;;;;24.62;36.17;101324.56;5216341;27;43901;-75
2024/04/16 20:05:52;;;;;;;;;0.00;0.00;;;;;24.72;34.79;101342.88;5204154;27;43761;-74
2024/04/16 20:08:17;;;;;;;;;0.00;0.00;;;;;24.73;35.12;101338.41;5195891;27;44087;-75
2024/04/16 20:10:43;;;;;;;;;0.00;0.00;;;;;24.44;34.99;101295.69;5182920;27;44665;-73
2024/04/16 20:13:14;;;;;;;;;0.67;0.00;;;;;24.71;35.75;101345.75;5184699;27;43927;-75
2024/04/16 20:15:39;;;;;;;;;0.00;0.00;;;;;24.46;35.20;101308.84;5212893;27;44078;-75
2024/04/16 20:18:11;;;;;;;;;0.00;0.00;;;;;24.65;35.41;101334.00;5205958;27;44056;-78
2024/04/16 20:20:38;;;;;;;;;0.00;0.00;;;;;24.53;34.88;101317.72;5188204;27;44199;-78
2024/04/16 20:23:03;;;;;;;;;0.00;0.00;;;;;24.73;35.65;101349.88;5184042;27;43951;-78
2024/04/16 20:25:29;;;;;;;;;0.67;0.00;;;;;24.66;36.05;101342.81;5184014;27;43927;-79
2024/04/16 20:27:54;;;;;;;;;0.00;0.00;;;;;24.72;35.39;101353.53;5211852;27;43870;-77
2024/04/16 20:30:20;;;;;;;;;0.00;0.00;;;;;24.70;35.18;101358.22;5215840;27;45269;-80
2024/04/16 20:32:45;;;;;;;;;0.33;0.00;;;;;24.73;35.12;101357.84;5201638;27;43935;-79
2024/04/16 20:35:11;;;;;;;;;0.00;0.00;;;;;24.71;35.67;101356.41;5183224;27;44084;-74
2024/04/16 20:37:36;;;;;;;;;0.00;0.00;;;;;24.68;36.11;101362.09;5183701;27;44186;-74
2024/04/16 20:40:01;;;;;;;;;1.00;0.00;;;;;24.67;35.33;101358.59;5193642;27;44764;-75
2024/04/16 20:42:26;;;;;;;;;0.00;0.00;;;;;24.75;36.31;101357.66;5190087;27;43749;-74
2024/04/16 20:44:52;;;;;;;;;0.00;0.00;;;;;24.72;35.92;101366.84;5191549;27;43958;-74
2024/04/16 20:47:17;;;;;;;;;2.00;0.00;;;;;24.52;35.33;101329.34;5189065;27;43825;-74
2024/04/16 20:49:44;;;;;;;;;0.00;0.00;;;;;24.67;35.89;101352.47;5190539;27;43749;-75
2024/04/16 20:52:10;;;;;;;;;1.00;1.00;;;;;24.69;34.92;101361.91;5191685;27;43783;-74
2024/04/16 20:54:35;;;;;;;;;0.00;0.00;;;;;24.71;35.23;101373.19;5199137;27;44185;-74
2024/04/16 20:57:00;;;;;;;;;2.33;0.33;;;;;24.76;35.50;101371.78;5198367;27;43913;-74
2024/04/16 20:59:26;;;;;;;;;1.00;0.00;;;;;24.74;35.90;101379.97;5198830;27;44918;-74
2024/04/16 21:01:51;;;;;;;;;0.00;0.00;;;;;24.60;35.72;101349.72;5197032;27;44045;-75
2024/04/16 21:04:17;;;;;;;;;0.00;0.00;;;;;24.74;36.10;101370.16;5199353;27;43908;-74
2024/04/16 21:06:43;;;;;;;;;0.00;0.00;;;;;24.75;35.77;101373.63;5206646;27;43904;-74
2024/04/16 21:09:08;;;;;;;;;0.67;0.00;;;;;24.64;35.93;101348.34;5198132;27;46566;-74
2024/04/16 21:11:34;;;;;;;;;0.00;0.00;;;;;24.76;36.57;101372.63;5208318;27;44035;-74
2024/04/16 21:13:59;;;;;;;;;1.00;0.00;;;;;24.69;36.14;101361.91;5209556;27;44175;-74
2024/04/16 21:16:24;;;;;;;;;0.00;0.00;;;;;24.77;35.07;101378.78;5190983;27;43987;-75
2024/04/16 21:18:50;;;;;;;;;3.00;0.00;;;;;24.77;35.76;101378.78;5190384;27;45700;-75
2024/04/16 21:21:15;;;;;;;;;0.00;0.00;;;;;24.74;36.42;101383.47;5189570;27;43932;-75
2024/04/16 21:23:42;;;;;;;;;1.00;0.00;;;;;24.71;35.37;101381.16;5190521;27;43937;-83
2024/04/16 21:26:08;;;;;;;;;0.00;0.00;;;;;24.48;35.51;101346.69;5173281;27;44546;-83
2024/04/16 21:28:33;;;;;;;;;1.00;1.00;;;;;24.79;35.49;101400.69;5200363;27;46768;-76
2024/04/16 21:30:58;;;;;;;;;0.00;0.00;;;;;24.68;36.05;101376.22;5207646;27;44061;-75
2024/04/16 21:33:24;;;;;;;;;0.00;0.00;;;;;24.80;35.93;101397.84;5202065;27;43899;-75
2024/04/16 21:35:49;;;;;;;;;0.00;0.00;;;;;24.75;36.16;101392.25;5204120;27;44014;-75
2024/04/16 21:38:15;;;;;;;;;0.67;0.67;;;;;24.81;35.25;101398.69;5190278;27;44037;-75
2024/04/16 21:40:40;;;;;;;;;0.00;0.00;;;;;24.62;35.39;101374.28;5211983;27;43937;-81
2024/04/16 21:43:06;;;;;;;;;0.00;0.00;;;;;24.67;35.30;101379.06;5222069;27;44316;-74
2024/04/16 21:45:31;;;;;;;;;1.00;0.00;;;;;24.81;36.30;101401.34;5189597;27;43907;-74
2024/04/16 21:47:56;;;;;;;;;0.00;0.00;;;;;24.71;35.84;101394.47;5189661;27;44700;-75
2024/04/16 21:50:22;;;;;;;;;0.00;0.00;;;;;24.74;35.92;101403.91;5188286;27;49070;-75
2024/04/16 21:52:48;;;;;;;;;0.00;0.00;;;;;24.66;36.41;101396.03;5188842;27;43947;-75
2024/04/16 21:55:14;;;;;;;;;0.33;0.00;;;;;24.78;35.26;101415.84;5189687;27;44025;-75
2024/04/16 21:57:39;;;;;;;;;0.00;0.00;;;;;24.51;36.37;101378.25;5189498;27;44731;-75
2024/04/16 22:00:07;;;;;;;;;0.00;0.00;;;;;24.76;36.38;101425.84;5189672;27;43958;-76
2024/04/16 22:02:33;;;;;;;;;0.33;0.00;;;;;24.75;36.28;101421.53;5189586;27;44157;-75
2024/04/16 22:04:58;;;;;;;;;1.33;0.33;;;;;24.75;35.58;101429.50;5184816;27;44019;-76
2024/04/16 22:07:24;;;;;;;;;0.00;0.00;;;;;24.74;36.44;101444.66;5185180;27;44712;-75
2024/04/16 22:09:50;;;;;;;;;0.00;0.00;;;;;24.59;36.21;101433.19;5185727;27;43785;-76
2024/04/16 22:12:15;;;;;;;;;0.00;0.00;;;;;24.64;35.93;101452.09;5185802;27;43661;-76
2024/04/16 22:14:40;;;;;;;;;0.00;0.00;;;;;24.64;35.28;101444.13;5185860;27;43919;-76
2024/04/16 22:17:06;;;;;;;;;1.00;0.00;;;;;24.72;35.37;101462.63;5185527;27;44047;-76
2024/04/16 22:19:31;;;;;;;;;0.00;0.00;;;;;24.57;35.84;101435.19;5185621;27;43800;-76
2024/04/16 22:21:56;;;;;;;;;0.00;0.00;;;;;24.69;36.45;101468.34;5185496;27;43924;-76
2024/04/16 22:24:21;;;;;;;;;0.33;0.33;;;;;24.70;36.33;101475.28;5183895;27;43987;-76
2024/04/16 22:26:47;;;;;;;;;0.00;0.00;;;;;24.68;35.93;101463.19;5185415;27;43944;-76
2024/04/16 22:29:12;;;;;;;;;0.33;0.00;;;;;24.69;36.70;101473.66;5185432;27;43980;-76
2024/04/16 22:31:37;;;;;;;;;0.00;0.00;;;;;24.68;35.29;101471.16;5185755;27;43914;-75
2024/04/16 22:34:03;;;;;;;;;0.00;0.00;;;;;24.55;35.80;101461.16;5185648;27;43927;-75
2024/04/16 22:36:28;;;;;;;;;1.67;0.00;;;;;24.52;35.69;101449.88;5184731;27;45160;-75
2024/04/16 22:38:53;;;;;;;;;0.00;0.00;;;;;24.56;35.60;101453.00;5185710;27;43980;-75
2024/04/16 22:41:19;;;;;;;;;0.00;0.00;;;;;24.52;35.40;101447.22;5185686;27;43996;-76
2024/04/16 22:43:44;;;;;;;;;0.00;0.00;;;;;24.60;35.21;101464.94;5185473;27;43864;-75
2024/04/16 22:46:12;;;;;;;;;1.00;1.00;;;;;24.52;36.56;101441.91;5185270;27;44004;-76
2024/04/16 22:48:38;;;;;;;;;0.00;0.00;;;;;24.56;35.32;101460.16;5185470;27;43897;-75
2024/04/16 22:51:03;;;;;;;;;1.00;0.00;;;;;24.64;34.96;101468.06;5184781;27;43987;-76
2024/04/16 22:53:32;;;;;;;;;0.67;0.67;;;;;24.55;36.02;101448.69;5185430;27;43916;-76
2024/04/16 22:55:57;;;;;;;;;0.00;0.00;;;;;24.62;35.58;101448.78;5185188;27;44793;-76
2024/04/16 22:58:22;;;;;;;;;0.00;0.00;;;;;24.55;36.22;101437.22;5185293;27;44051;-76
2024/04/16 23:00:48;;;;;;;;;1.00;1.00;;;;;24.65;36.16;101444.91;5185423;27;44517;-77
2024/04/16 23:03:13;;;;;;;;;0.00;0.00;;;;;24.36;35.55;101396.84;5185149;27;44033;-76
2024/04/16 23:05:39;;;;;;;;;0.00;0.00;;;;;24.64;35.24;101444.13;5184846;27;45868;-76
2024/04/16 23:08:06;;;;;;;;;0.00;0.00;;;;;24.63;36.33;101447.78;5185168;27;43905;-75
2024/04/16 23:10:34;;;;;;;;;2.00;0.00;;;;;24.62;36.68;101438.97;5185366;27;43983;-76
2024/04/16 23:12:59;;;;;;;;;0.00;0.00;;;;;24.62;36.47;101435.47;5185431;27;44027;-76
2024/04/16 23:15:25;;;;;;;;;1.00;0.00;;;;;24.54;35.96;101422.28;5184717;27;46028;-75
2024/04/16 23:17:50;;;;;;;;;2.00;0.00;;;;;24.49;36.08;101418.31;5184637;27;43913;-75
2024/04/16 23:20:16;;;;;;;;;0.00;0.00;;;;;24.60;35.64;101434.84;5185375;27;43968;-76
2024/04/16 23:22:41;;;;;;;;;0.00;0.00;;;;;24.60;35.67;101437.50;5185254;27;43959;-76
2024/04/16 23:25:06;;;;;;;;;0.00;0.00;;;;;24.58;36.09;101435.03;5185038;27;44586;-76
2024/04/16 23:27:32;;;;;;;;;0.00;0.00;;;;;24.54;35.43;101430.25;5184947;27;44430;-75
2024/04/16 23:29:57;;;;;;;;;0.00;0.00;;;;;24.59;36.69;101441.97;5185118;27;43981;-75
2024/04/16 23:32:22;;;;;;;;;1.67;1.00;;;;;24.59;36.48;101439.31;5184659;27;43840;-76
2024/04/16 23:34:48;;;;;;;;;0.00;0.00;;;;;24.57;36.29;101421.91;5184828;27;43923;-76
2024/04/16 23:37:15;;;;;;;;;0.00;0.00;;;;;24.54;35.53;101425.75;5184787;27;43967;-76
2024/04/16 23:39:41;;;;;;;;;1.00;0.00;;;;;24.52;35.83;101428.59;5185303;27;43935;-76
2024/04/16 23:42:06;;;;;;;;;0.33;0.33;;;;;24.50;35.75;101413.84;5184970;27;43917;-76
2024/04/16 23:44:31;;;;;;;;;0.00;0.00;;;;;24.48;36.29;101418.53;5184669;27;44716;-75
2024/04/16 23:46:57;;;;;;;;;0.00;0.00;;;;;24.44;35.88;101414.56;5184229;27;43977;-75
2024/04/16 23:49:22;;;;;;;;;2.00;2.00;;;;;24.56;35.60;101436.22;5184584;27;44370;-76
2024/04/16 23:51:47;;;;;;;;;1.00;0.00;;;;;24.46;36.53;101420.53;5184951;27;44055;-76
2024/04/16 23:54:13;;;;;;;;;0.00;0.00;;;;;24.55;35.74;101442.53;5184638;27;43801;-75
2024/04/16 23:56:39;;;;;;;;;0.00;0.00;;;;;24.52;36.47;101439.25;5184928;27;44016;-75
2024/04/16 23:59:04;;;;;;;;;0.00;0.00;;;;;24.31;35.91;101401.88;5184735;27;44055;-76
